Time;durP1;ratioP1;P1;durP2;ratioP2;P2;SDS_P1;SDS_P2;PMS_P1;PMS_P2;Temp;Humidity;BMP_temperature;BMP_pressure;BME280_temperature;BME280_humidity;BME280_pressure;Samples;Min_cycle;Max_cycle;Signal;HPM_P1;HPM_P2
2021/12/15 00:01:39;;;;;;;40.22;13.57;;;;;;;-0.38;100.00;100099.34;5152056;27;20050;-48
2021/12/15 00:04:06;;;;;;;31.50;13.95;;;;;;;-0.39;100.00;100107.72;5151993;27;20102;-49
2021/12/15 00:06:33;;;;;;;31.75;14.25;;;;;;;-0.45;100.00;100104.19;5152045;27;20265;-49
2021/12/15 00:09:04;;;;;;;28.95;13.82;;;;;;;-0.44;100.00;100097.72;5152305;27;20150;-47
2021/12/15 00:11:35;;;;;;;27.35;14.73;;;;;;;-0.49;100.00;100090.47;5152092;27;20050;-49
2021/12/15 00:14:04;;;;;;;28.45;13.27;;;;;;;-0.49;100.00;100097.75;5151801;27;20074;-47
2021/12/15 00:16:31;;;;;;;30.13;14.38;;;;;;;-0.50;100.00;100086.16;5152087;27;20050;-47
2021/12/15 00:18:57;;;;;;;27.08;14.32;;;;;;;-0.51;100.00;100073.75;5152250;27;20110;-48
2021/12/15 00:21:24;;;;;;;33.88;14.52;;;;;;;-0.52;100.00;100068.63;5152095;27;20054;-48
2021/12/15 00:23:50;;;;;;;31.90;14.98;;;;;;;-0.54;100.00;100066.19;5151986;27;20133;-48
2021/12/15 00:26:18;;;;;;;31.88;14.55;;;;;;;-0.52;100.00;100044.41;5151919;27;20129;-46
2021/12/15 00:28:46;;;;;;;29.92;14.65;;;;;;;-0.64;100.00;100046.53;5151880;27;20161;-51
2021/12/15 00:31:13;;;;;;;36.08;16.33;;;;;;;-0.58;100.00;100024.72;5151773;27;20545;-47
2021/12/15 00:33:42;;;;;;;36.58;16.42;;;;;;;-0.45;100.00;100017.19;5151666;27;20057;-46
2021/12/15 00:36:09;;;;;;;31.50;14.60;;;;;;;-0.46;100.00;100010.19;5151695;27;20074;-47
2021/12/15 00:38:36;;;;;;;34.13;14.98;;;;;;;-0.43;100.00;99998.84;5151522;27;20047;-48
2021/12/15 00:41:04;;;;;;;37.28;15.20;;;;;;;-0.41;100.00;99999.41;5151540;27;20412;-49
2021/12/15 00:43:31;;;;;;;43.95;17.95;;;;;;;-0.40;100.00;99990.22;5151462;27;20071;-47
2021/12/15 00:45:58;;;;;;;33.45;16.73;;;;;;;-0.40;100.00;99985.69;5151518;27;20429;-46
2021/12/15 00:48:25;;;;;;;38.08;16.23;;;;;;;-0.34;100.00;99983.75;5151473;27;20054;-51
2021/12/15 00:50:51;;;;;;;39.85;17.75;;;;;;;-0.34;100.00;99984.56;5151397;27;20050;-47
2021/12/15 00:53:17;;;;;;;34.70;16.50;;;;;;;-0.34;100.00;99968.41;5151291;27;20051;-47
2021/12/15 00:55:45;;;;;;;42.47;16.60;;;;;;;-0.35;100.00;99968.69;5151284;27;20047;-48
2021/12/15 00:58:12;;;;;;;31.52;16.25;;;;;;;-0.35;100.00;99963.28;5151150;27;20046;-48
2021/12/15 01:00:44;;;;;;;32.67;16.05;;;;;;;-0.31;100.00;99961.66;5150814;27;20054;-46
2021/12/15 01:03:11;;;;;;;31.02;14.45;;;;;;;-0.32;100.00;99954.66;5151155;27;20409;-48
2021/12/15 01:05:43;;;;;;;31.75;15.38;;;;;;;-0.30;100.00;99945.25;5150853;27;20145;-46
2021/12/15 01:08:12;;;;;;;32.95;15.38;;;;;;;-0.25;100.00;99942.50;5151153;27;20098;-46
2021/12/15 01:10:55;;;;;;;39.22;15.82;;;;;;;-0.28;100.00;99945.75;5151408;27;20454;-47
2021/12/15 01:21:38;;;;;;;27.98;12.82;;;;;;;-0.36;100.00;99916.69;5151322;27;20053;-46
2021/12/15 01:24:05;;;;;;;37.15;14.52;;;;;;;-0.33;100.00;99912.66;5151148;27;20086;-48
2021/12/15 01:26:32;;;;;;;27.73;14.38;;;;;;;-0.29;100.00;99903.72;5152536;27;20050;-47
2021/12/15 01:28:58;;;;;;;41.65;14.35;;;;;;;-0.24;100.00;99901.00;5154662;27;20065;-46
2021/12/15 01:31:25;;;;;;;39.72;16.15;;;;;;;-0.15;100.00;99892.38;5154832;27;20950;-48
2021/12/15 01:33:51;;;;;;;24.13;13.00;;;;;;;-0.22;100.00;99886.47;5155022;27;20523;-46
2021/12/15 01:36:18;;;;;;;31.73;14.18;;;;;;;-0.23;100.00;99888.38;5154673;27;20564;-48
2021/12/15 01:38:46;;;;;;;26.25;12.85;;;;;;;-0.28;100.00;99883.78;5154311;27;20111;-47
2021/12/15 01:41:19;;;;;;;31.25;14.68;;;;;;;-0.29;100.00;99889.47;5154488;27;20499;-48
2021/12/15 01:46:51;;;;;;;36.60;14.93;;;;;;;-0.23;100.00;99874.88;5154323;27;20106;-46
2021/12/15 01:46:57;;;;;;;24.70;13.70;;;;;;;-0.18;100.00;99874.03;5154344;27;20497;-47
2021/12/15 01:49:32;;;;;;;39.97;15.82;;;;;;;-0.13;100.00;99879.44;5154290;27;20050;-48
2021/12/15 01:52:01;;;;;;;37.63;16.00;;;;;;;-0.14;100.00;99881.28;5154143;27;20054;-48
2021/12/15 01:54:29;;;;;;;36.88;15.75;;;;;;;-0.10;100.00;99874.28;5154155;27;20057;-46
2021/12/15 01:56:56;;;;;;;37.30;15.38;;;;;;;-0.15;100.00;99871.59;5154504;27;20050;-47
2021/12/15 01:59:24;;;;;;;28.33;14.30;;;;;;;-0.18;100.00;99874.03;5153687;27;20107;-47
2021/12/15 02:01:51;;;;;;;29.63;14.27;;;;;;;-0.17;100.00;99868.38;5154138;27;20057;-47
2021/12/15 02:04:19;;;;;;;37.05;16.00;;;;;;;-0.14;100.00;99865.13;5154322;27;20046;-49
2021/12/15 02:06:46;;;;;;;32.83;15.00;;;;;;;-0.10;100.00;99862.69;5154206;27;20157;-48
2021/12/15 02:09:20;;;;;;;41.05;17.10;;;;;;;-0.14;100.00;99873.22;5154470;27;20050;-46
2021/12/15 02:11:47;;;;;;;30.50;15.52;;;;;;;-0.14;100.00;99875.91;5153894;27;20043;-47
2021/12/15 02:14:13;;;;;;;36.83;15.48;;;;;;;-0.20;100.00;99868.94;5153822;27;20150;-47
2021/12/15 02:16:40;;;;;;;28.65;14.18;;;;;;;-0.17;100.00;99864.88;5153699;27;20050;-49
2021/12/15 02:19:07;;;;;;;34.30;15.98;;;;;;;-0.07;100.00;99846.78;5153887;27;20050;-49
2021/12/15 02:21:34;;;;;;;33.25;15.20;;;;;;;-0.10;100.00;99852.72;5153722;27;20103;-47
2021/12/15 02:24:01;;;;;;;33.35;15.23;;;;;;;-0.09;100.00;99845.44;5153607;27;20075;-47
2021/12/15 02:26:35;;;;;;;33.45;15.85;;;;;;;-0.04;100.00;99845.41;5153765;27;20051;-47
2021/12/15 02:29:03;;;;;;;33.55;14.60;;;;;;;-0.07;100.00;99845.94;5153720;27;20091;-47
2021/12/15 02:31:41;;;;;;;31.75;14.93;;;;;;;-0.11;100.00;99850.28;5153779;27;20134;-46
2021/12/15 02:34:30;;;;;;;34.28;16.13;;;;;;;-0.11;100.00;99839.50;5153593;27;20462;-47
2021/12/15 02:37:16;;;;;;;39.33;15.50;;;;;;;-0.08;100.00;99853.25;5153392;27;20077;-46
2021/12/15 02:39:46;;;;;;;28.83;14.00;;;;;;;-0.15;100.00;99858.13;5153466;27;20457;-46
2021/12/15 02:42:12;;;;;;;30.13;14.18;;;;;;;-0.18;100.00;99855.19;5153498;27;20129;-47
2021/12/15 02:44:43;;;;;;;29.17;13.68;;;;;;;-0.13;100.00;99839.81;5153394;27;20077;-46
2021/12/15 02:47:10;;;;;;;32.30;15.25;;;;;;;-0.02;100.00;99846.75;5153634;27;20063;-47
2021/12/15 02:49:37;;;;;;;46.72;17.23;;;;;;;0.01;100.00;99847.28;5153264;27;20138;-47
2021/12/15 02:52:05;;;;;;;28.13;14.35;;;;;;;0.02;100.00;99856.97;5153437;27;20072;-47
2021/12/15 02:54:32;;;;;;;33.47;15.05;;;;;;;0.03;100.00;99853.19;5152960;27;20046;-48
2021/12/15 02:57:05;;;;;;;28.80;13.70;;;;;;;0.04;100.00;99858.31;5153109;27;20057;-47
2021/12/15 02:59:41;;;;;;;36.73;16.10;;;;;;;0.06;100.00;99858.81;5152870;27;20047;-47
2021/12/15 03:02:17;;;;;;;29.88;13.55;;;;;;;0.07;100.00;99859.63;5153131;27;20470;-47
2021/12/15 03:04:48;;;;;;;25.15;12.68;;;;;;;0.01;100.00;99863.47;5152922;27;20054;-47
2021/12/15 03:07:25;;;;;;;25.95;13.20;;;;;;;0.07;100.00;99868.53;5153040;27;20058;-47
2021/12/15 03:15:33;;;;;;;26.75;11.98;;;;;;;0.13;100.00;99888.97;5153007;27;20481;-47
2021/12/15 03:18:05;;;;;;;23.63;12.68;;;;;;;0.16;100.00;99882.22;5152618;27;20057;-48
2021/12/15 03:20:35;;;;;;;30.67;13.52;;;;;;;0.16;100.00;99885.72;5152695;27;20057;-48
2021/12/15 03:23:05;;;;;;;27.63;13.40;;;;;;;0.10;100.00;99891.41;5152649;27;20462;-46
2021/12/15 03:25:31;;;;;;;29.73;13.23;;;;;;;0.11;100.00;99896.56;5152785;27;20049;-46
2021/12/15 03:33:44;;;;;;;26.83;13.15;;;;;;;0.04;100.00;99893.34;5152628;27;20050;-48
2021/12/15 03:36:23;;;;;;;34.13;14.23;;;;;;;0.14;100.00;99877.13;5152521;27;20050;-48
2021/12/15 03:38:50;;;;;;;28.00;12.63;;;;;;;0.15;100.00;99872.53;5152449;27;20522;-49
2021/12/15 03:41:16;;;;;;;24.35;12.30;;;;;;;0.20;100.00;99873.31;5152483;27;20059;-47
2021/12/15 03:43:43;;;;;;;24.63;12.55;;;;;;;0.21;100.00;99872.22;5152661;27;20055;-47
2021/12/15 03:46:14;;;;;;;29.52;13.10;;;;;;;0.28;100.00;99869.22;5152746;27;20586;-46
2021/12/15 03:48:42;;;;;;;27.05;12.15;;;;;;;0.28;100.00;99876.50;5151607;27;20054;-46
2021/12/15 03:51:09;;;;;;;31.40;12.93;;;;;;;0.28;100.00;99885.41;5152211;27;20054;-48
2021/12/15 03:53:36;;;;;;;30.83;12.52;;;;;;;0.32;100.00;99883.75;5152603;27;20386;-46
2021/12/15 03:56:03;;;;;;;28.33;14.02;;;;;;;0.29;100.00;99892.41;5152072;27;20135;-46
2021/12/15 03:58:30;;;;;;;22.27;11.02;;;;;;;0.26;100.00;99901.03;5152402;27;20046;-47
2021/12/15 04:01:00;;;;;;;25.80;11.77;;;;;;;0.23;100.00;99912.38;5151791;27;20047;-47
2021/12/15 04:03:29;;;;;;;20.85;10.88;;;;;;;0.18;100.00;99918.63;5152051;27;20140;-49
2021/12/15 04:05:57;;;;;;;23.90;12.52;;;;;;;0.18;100.00;99913.22;5152120;27;20050;-46
2021/12/15 04:08:25;;;;;;;24.33;12.00;;;;;;;0.25;100.00;99915.63;5151980;27;20052;-46
2021/12/15 04:10:52;;;;;;;27.02;12.55;;;;;;;0.23;100.00;99909.69;5151935;27;20053;-47
2021/12/15 04:13:19;;;;;;;23.25;11.40;;;;;;;0.29;100.00;99908.59;5152049;27;20103;-48
2021/12/15 04:15:53;;;;;;;32.95;12.43;;;;;;;0.29;100.00;99910.47;5151723;27;20142;-47
2021/12/15 04:18:20;;;;;;;23.95;11.23;;;;;;;0.23;100.00;99913.22;5151714;27;20050;-47
2021/12/15 04:20:46;;;;;;;20.00;10.23;;;;;;;0.26;100.00;99911.84;5152113;27;20076;-46
2021/12/15 04:23:18;;;;;;;35.38;12.90;;;;;;;0.29;100.00;99908.59;5151632;27;20047;-46
2021/12/15 04:25:48;;;;;;;31.75;11.75;;;;;;;0.31;100.00;99914.50;5151737;27;20051;-47
2021/12/15 04:28:17;;;;;;;24.27;11.23;;;;;;;0.29;100.00;99910.47;5151875;27;20047;-49
2021/12/15 04:30:48;;;;;;;25.75;11.30;;;;;;;0.24;100.00;99916.72;5151602;27;20053;-46
2021/12/15 04:33:18;;;;;;;24.05;11.55;;;;;;;0.26;100.00;99901.03;5151686;27;20141;-48
2021/12/15 04:35:45;;;;;;;40.92;14.75;;;;;;;0.32;100.00;99894.53;5151561;27;20137;-46
2021/12/15 04:38:13;;;;;;;30.35;12.80;;;;;;;0.40;100.00;99893.97;5151479;27;20050;-46
2021/12/15 04:40:40;;;;;;;27.80;11.85;;;;;;;0.39;100.00;99896.94;5151661;27;20050;-50
2021/12/15 04:43:07;;;;;;;26.08;11.27;;;;;;;0.45;100.00;99890.41;5151634;27;20495;-47
2021/12/15 04:45:33;;;;;;;23.17;11.25;;;;;;;0.51;100.00;99889.31;5151282;27;20049;-46
2021/12/15 04:48:01;;;;;;;24.02;10.25;;;;;;;0.53;100.00;99899.81;5151553;27;20051;-46
2021/12/15 04:50:30;;;;;;;22.42;9.75;;;;;;;0.53;100.00;99903.31;5151296;27;20133;-46
2021/12/15 04:52:59;;;;;;;39.90;12.75;;;;;;;0.58;100.00;99911.38;5151161;27;20050;-46
2021/12/15 04:55:28;;;;;;;18.45;9.45;;;;;;;0.61;100.00;99918.13;5151436;27;20051;-46
2021/12/15 04:57:54;;;;;;;16.52;8.18;;;;;;;0.63;100.00;99918.63;5151334;27;20050;-46
2021/12/15 05:00:26;;;;;;;26.88;11.48;;;;;;;0.64;100.00;99912.97;5150976;27;20596;-47
2021/12/15 05:02:52;;;;;;;24.50;9.93;;;;;;;0.69;100.00;99904.00;5154592;27;20050;-48
2021/12/15 05:05:20;;;;;;;27.80;10.55;;;;;;;0.73;100.00;99907.75;5154892;27;20071;-47
2021/12/15 05:07:49;;;;;;;25.95;10.43;;;;;;;0.78;100.00;99906.94;5154751;27;20452;-49
2021/12/15 05:10:16;;;;;;;27.38;10.52;;;;;;;0.83;100.00;99904.97;5154109;27;20057;-47
2021/12/15 05:12:42;;;;;;;16.23;8.23;;;;;;;0.79;100.00;99914.72;5154352;27;20046;-49
2021/12/15 05:15:09;;;;;;;23.55;10.80;;;;;;;0.81;100.00;99917.97;5154434;27;20436;-47
2021/12/15 05:17:36;;;;;;;25.23;10.32;;;;;;;0.83;100.00;99923.88;5154754;27;20429;-46
2021/12/15 05:20:06;;;;;;;38.80;11.73;;;;;;;0.88;100.00;99929.25;5154557;27;20141;-49
2021/12/15 05:22:33;;;;;;;22.40;9.95;;;;;;;0.84;100.00;99941.69;5154610;27;20051;-48
2021/12/15 05:25:00;;;;;;;18.70;10.50;;;;;;;0.84;100.00;99940.91;5154795;27;20149;-48
2021/12/15 05:27:27;;;;;;;24.67;10.07;;;;;;;0.86;100.00;99934.09;5154329;27;20050;-49
2021/12/15 05:29:53;;;;;;;29.48;11.43;;;;;;;0.92;100.00;99932.19;5154503;27;20053;-47
2021/12/15 05:32:22;;;;;;;16.60;9.50;;;;;;;0.92;100.00;99941.09;5153887;27;20054;-50
2021/12/15 05:34:51;;;;;;;20.27;10.18;;;;;;;0.92;100.00;99945.69;5154056;27;20053;-49
2021/12/15 05:37:18;;;;;;;20.35;9.38;;;;;;;0.98;100.00;99946.47;5154232;27;20047;-51
2021/12/15 05:39:47;;;;;;;18.25;9.60;;;;;;;0.96;100.00;99948.63;5154119;27;20042;-49
2021/12/15 05:42:14;;;;;;;17.40;9.48;;;;;;;0.95;100.00;99947.81;5154074;27;20544;-50
2021/12/15 05:44:40;;;;;;;18.67;9.60;;;;;;;0.96;100.00;99956.72;5154217;27;20050;-51
2021/12/15 05:47:07;;;;;;;20.60;9.77;;;;;;;0.96;100.00;99954.81;5154152;27;20047;-48
2021/12/15 05:49:33;;;;;;;19.83;9.35;;;;;;;0.96;100.00;99962.13;5153740;27;20133;-49
2021/12/15 05:52:01;;;;;;;46.28;16.48;;;;;;;0.98;100.00;99954.56;5148705;27;20085;-51
2021/12/15 05:54:29;;;;;;;37.58;14.35;;;;;;;0.98;100.00;99955.34;5133370;28;20053;-51
2021/12/15 05:56:56;;;;;;;27.25;11.65;;;;;;;0.98;100.00;99957.25;5131047;28;20051;-55
2021/12/15 05:59:23;;;;;;;16.55;9.75;;;;;;;0.99;100.00;99958.88;5133166;28;20053;-52
2021/12/15 06:01:49;;;;;;;255.20;56.20;;;;;;;0.95;100.00;99966.72;5132701;28;20106;-54
2021/12/15 06:04:16;;;;;;;27.30;11.57;;;;;;;0.94;100.00;99951.63;5133033;28;20482;-52
2021/12/15 06:06:42;;;;;;;20.17;10.02;;;;;;;0.99;100.00;99948.06;5133137;28;20050;-51
2021/12/15 06:09:10;;;;;;;18.55;9.70;;;;;;;0.96;100.00;99945.91;5131618;28;20050;-50
2021/12/15 06:11:39;;;;;;;21.08;10.05;;;;;;;1.00;100.00;99949.66;5131992;27;20136;-51
2021/12/15 06:14:07;;;;;;;19.30;10.10;;;;;;;1.03;100.00;99949.09;5138037;27;20134;-54
2021/12/15 06:16:34;;;;;;;27.05;9.38;;;;;;;1.03;100.00;99963.41;5153423;27;20053;-56
2021/12/15 06:19:02;;;;;;;21.63;9.55;;;;;;;1.03;100.00;99949.91;5142852;27;20061;-51
2021/12/15 06:21:31;;;;;;;19.58;10.13;;;;;;;1.11;100.00;99952.00;5153548;27;20158;-52
2021/12/15 06:23:57;;;;;;;19.90;9.00;;;;;;;1.12;100.00;99947.41;5153385;27;20066;-52
2021/12/15 06:26:23;;;;;;;18.63;9.68;;;;;;;1.09;100.00;99964.97;5153010;27;20053;-52
2021/12/15 06:28:50;;;;;;;24.23;10.48;;;;;;;1.14;100.00;99964.16;5152490;27;20054;-51
2021/12/15 06:31:18;;;;;;;25.70;10.43;;;;;;;1.14;100.00;99961.44;5152631;27;20058;-50
2021/12/15 06:33:46;;;;;;;20.05;10.27;;;;;;;1.14;100.00;99961.44;5152904;27;20069;-49
2021/12/15 06:36:14;;;;;;;19.02;10.07;;;;;;;1.09;100.00;99973.09;5152884;27;20051;-49
2021/12/15 06:38:45;;;;;;;25.90;9.85;;;;;;;1.10;100.00;99973.88;5152263;27;20054;-49
2021/12/15 06:41:13;;;;;;;21.63;10.45;;;;;;;1.12;100.00;99983.31;5152813;27;20070;-51
2021/12/15 06:43:42;;;;;;;20.90;10.45;;;;;;;1.14;100.00;99983.84;5152444;27;20054;-50
2021/12/15 06:46:27;;;;;;;22.17;11.02;;;;;;;1.18;100.00;99984.91;5153305;27;20047;-49
2021/12/15 06:57:32;;;;;;;22.83;11.02;;;;;;;1.35;100.00;100016.09;5152720;27;20078;-53
2021/12/15 07:00:00;;;;;;;25.13;11.82;;;;;;;1.33;100.00;100013.69;5139492;27;20051;-51
2021/12/15 07:02:27;;;;;;;28.63;12.27;;;;;;;1.30;100.00;100016.13;5131684;28;20058;-51
2021/12/15 07:04:54;;;;;;;18.73;9.43;;;;;;;1.33;100.00;100031.78;5131915;28;20494;-49
2021/12/15 07:07:20;;;;;;;17.27;9.30;;;;;;;1.35;100.00;100035.03;5131529;28;20065;-48
2021/12/15 07:09:46;;;;;;;18.30;9.13;;;;;;;1.33;100.00;100040.72;5112177;28;20426;-52
2021/12/15 07:12:13;;;;;;;28.52;11.73;;;;;;;1.36;100.00;100039.31;5132024;28;20456;-51
2021/12/15 07:14:39;;;;;;;24.58;9.77;;;;;;;1.36;100.00;100037.44;5131820;27;20043;-62
2021/12/15 07:17:10;;;;;;;25.30;11.65;;;;;;;1.38;100.00;100050.66;5130998;28;20509;-61
2021/12/15 07:20:02;;;;;;;21.15;9.57;;;;;;;1.49;100.00;100054.91;5120103;28;20476;-62
2021/12/15 07:22:31;;;;;;;23.73;10.80;;;;;;;1.58;100.00;100047.78;5122808;28;20447;-61
2021/12/15 07:24:58;;;;;;;20.55;9.75;;;;;;;1.71;100.00;100059.06;5151627;27;20049;-63
2021/12/15 07:27:25;;;;;;;24.05;10.52;;;;;;;1.82;100.00;100068.66;5152742;27;20055;-61
2021/12/15 07:29:51;;;;;;;27.58;12.25;;;;;;;1.86;100.00;100072.41;5151979;27;20050;-61
2021/12/15 07:32:18;;;;;;;20.98;10.52;;;;;;;1.94;100.00;100092.66;5152591;27;20068;-62
2021/12/15 07:34:44;;;;;;;29.10;10.98;;;;;;;1.93;100.00;100101.81;5152608;27;20072;-61
2021/12/15 07:37:10;;;;;;;19.02;9.27;;;;;;;1.99;100.00;100114.22;5135682;27;20158;-62
2021/12/15 07:39:38;;;;;;;21.10;10.48;;;;;;;2.10;100.00;100123.88;5131895;27;20047;-61
2021/12/15 07:42:07;;;;;;;15.80;8.90;;;;;;;2.12;100.00;100127.88;5131887;27;20089;-64
2021/12/15 07:44:35;;;;;;;16.23;9.30;;;;;;;2.18;100.00;100150.28;5145624;27;20050;-62
2021/12/15 07:47:01;;;;;;;19.80;9.50;;;;;;;2.17;100.00;100164.13;5152164;27;20402;-63
2021/12/15 07:49:28;;;;;;;17.67;9.32;;;;;;;2.12;100.00;100170.34;5152060;27;20141;-63
2021/12/15 07:52:00;;;;;;;25.60;9.77;;;;;;;2.03;100.00;100189.13;5151561;27;20054;-63
2021/12/15 07:54:27;;;;;;;17.50;9.05;;;;;;;2.01;100.00;100193.19;5152088;27;20050;-63
2021/12/15 07:56:54;;;;;;;23.05;10.48;;;;;;;2.01;100.00;100191.28;5151875;27;20050;-64
2021/12/15 07:59:21;;;;;;;18.60;10.07;;;;;;;2.05;100.00;100189.63;5151881;27;20051;-63
2021/12/15 08:01:47;;;;;;;18.67;10.40;;;;;;;2.12;100.00;100194.72;5132976;27;20649;-63
2021/12/15 08:04:13;;;;;;;19.85;9.70;;;;;;;2.06;100.00;100195.84;5131368;27;20051;-63
2021/12/15 08:06:40;;;;;;;18.35;10.05;;;;;;;1.98;100.00;100205.38;5132203;27;20166;-64
2021/12/15 08:09:06;;;;;;;20.60;10.77;;;;;;;2.09;100.00;100197.97;5151753;27;20061;-62
2021/12/15 08:11:33;;;;;;;18.63;10.43;;;;;;;2.15;100.00;100204.97;5151821;27;20122;-65
2021/12/15 08:14:01;;;;;;;17.25;9.68;;;;;;;2.13;100.00;100204.44;5151950;27;20054;-66
2021/12/15 08:16:27;;;;;;;17.38;9.90;;;;;;;2.16;100.00;100201.16;5151772;27;20094;-65
2021/12/15 08:18:54;;;;;;;21.88;10.32;;;;;;;2.25;100.00;100207.56;5151726;27;20541;-63
2021/12/15 08:21:20;;;;;;;22.65;10.25;;;;;;;2.27;100.00;100215.44;5151808;27;20050;-58
2021/12/15 08:23:46;;;;;;;19.83;9.75;;;;;;;2.28;100.00;100217.03;5151878;27;20042;-62
2021/12/15 08:26:12;;;;;;;27.45;12.32;;;;;;;2.30;100.00;100231.91;5151460;27;20047;-65
2021/12/15 08:28:39;;;;;;;17.83;9.68;;;;;;;2.26;100.00;100238.16;5151653;27;20532;-65
2021/12/15 08:31:07;;;;;;;25.33;12.60;;;;;;;2.31;100.00;100224.59;5150843;27;20133;-64
2021/12/15 08:33:34;;;;;;;23.00;12.02;;;;;;;2.26;100.00;100227.31;5151309;27;20133;-63
2021/12/15 08:36:04;;;;;;;21.33;11.40;;;;;;;2.23;100.00;100226.00;5151015;27;20049;-62
2021/12/15 08:38:33;;;;;;;24.55;12.20;;;;;;;2.28;100.00;100208.91;5151085;27;20054;-61
2021/12/15 08:41:00;;;;;;;24.73;12.43;;;;;;;2.23;100.00;100208.94;5151074;27;20050;-62
2021/12/15 08:43:27;;;;;;;21.40;12.05;;;;;;;2.10;100.00;100219.34;5149055;27;20078;-62
2021/12/15 08:45:59;;;;;;;24.10;11.82;;;;;;;2.08;100.00;100210.69;5150897;27;20141;-63
2021/12/15 08:48:26;;;;;;;22.30;12.55;;;;;;;2.01;100.00;100206.72;5151156;27;20046;-63
2021/12/15 08:50:53;;;;;;;23.20;12.43;;;;;;;1.96;100.00;100210.25;5151106;27;20103;-64
2021/12/15 08:53:20;;;;;;;19.00;10.50;;;;;;;1.98;100.00;100193.75;5149243;27;20057;-63
2021/12/15 08:55:48;;;;;;;27.13;12.68;;;;;;;2.04;100.00;100182.59;5139152;27;20134;-63
2021/12/15 08:58:15;;;;;;;22.23;12.40;;;;;;;2.13;100.00;100180.09;5130145;27;20493;-64
2021/12/15 09:00:43;;;;;;;21.52;12.00;;;;;;;2.23;100.00;100177.31;5129607;27;20150;-64
2021/12/15 09:03:10;;;;;;;27.73;13.20;;;;;;;2.30;100.00;100174.25;5130007;28;20564;-64
2021/12/15 09:05:38;;;;;;;22.63;11.95;;;;;;;2.24;100.00;100178.13;5130034;28;20047;-64
2021/12/15 09:08:05;;;;;;;22.88;12.75;;;;;;;2.23;100.00;100169.19;5130058;28;20058;-61
2021/12/15 09:10:33;;;;;;;22.95;12.73;;;;;;;2.29;100.00;100162.63;5129056;28;20490;-61
2021/12/15 09:13:01;;;;;;;22.65;13.55;;;;;;;2.44;100.00;100152.75;5129779;28;20147;-62
2021/12/15 09:15:27;;;;;;;23.35;11.90;;;;;;;2.52;100.00;100144.00;5130460;28;20417;-63
2021/12/15 09:17:54;;;;;;;23.98;13.48;;;;;;;2.55;100.00;100151.53;5128889;28;20413;-63
2021/12/15 09:20:23;;;;;;;26.00;14.43;;;;;;;2.46;100.00;100155.97;5109359;28;20506;-63
2021/12/15 09:22:50;;;;;;;23.67;14.50;;;;;;;2.52;100.00;100165.66;5127526;28;20586;-64
2021/12/15 09:25:17;;;;;;;33.22;16.67;;;;;;;2.55;100.00;100184.03;5129392;28;20549;-64
2021/12/15 09:27:46;;;;;;;30.60;14.75;;;;;;;2.52;100.00;100187.31;5129965;28;20422;-62
2021/12/15 09:30:14;;;;;;;23.77;12.50;;;;;;;2.50;100.00;100187.59;5129426;28;20051;-63
2021/12/15 09:32:41;;;;;;;26.75;13.73;;;;;;;2.49;100.00;100188.69;5129786;28;20162;-63
2021/12/15 09:35:09;;;;;;;32.08;15.25;;;;;;;2.53;100.00;100186.19;5111629;28;20043;-63
2021/12/15 09:37:35;;;;;;;32.28;16.25;;;;;;;2.54;100.00;100179.72;5109456;28;20066;-63
2021/12/15 09:40:04;;;;;;;35.63;15.93;;;;;;;2.57;100.00;100182.66;5139400;27;20081;-63
2021/12/15 09:42:34;;;;;;;27.13;14.93;;;;;;;2.54;100.00;100182.44;5150306;27;20042;-63
2021/12/15 09:45:16;;;;;;;29.90;14.40;;;;;;;2.53;100.00;100168.09;5150102;27;20054;-63
2021/12/15 09:47:58;;;;;;;25.48;13.85;;;;;;;2.61;100.00;100163.13;5152294;27;20086;-63
2021/12/15 10:04:26;;;;;;;27.00;13.13;;;;;;;2.64;100.00;100176.91;5090000;28;20051;-72
2021/12/15 10:07:16;;;;;;;22.98;13.10;;;;;;;2.59;100.00;100164.22;5140549;27;20139;-65
2021/12/15 10:18:15;;;;;;;23.95;12.55;;;;;;;2.79;100.00;100179.41;5153439;27;20042;-65
2021/12/15 10:20:43;;;;;;;21.95;12.48;;;;;;;2.80;100.00;100174.84;5148513;27;20046;-63
2021/12/15 10:23:12;;;;;;;30.85;14.63;;;;;;;2.81;100.00;100169.13;5152986;27;20566;-62
2021/12/15 10:25:43;;;;;;;28.48;13.95;;;;;;;2.73;100.00;100167.06;5153538;27;20354;-62
2021/12/15 10:28:12;;;;;;;29.67;13.90;;;;;;;2.72;100.00;100156.50;5152915;27;20058;-62
2021/12/15 10:30:41;;;;;;;27.48;14.95;;;;;;;2.73;100.00;100163.53;5152434;27;20050;-62
2021/12/15 10:33:10;;;;;;;28.90;15.57;;;;;;;2.76;100.00;100150.22;5149945;27;20505;-63
2021/12/15 10:35:40;;;;;;;34.10;14.02;;;;;;;2.82;100.00;100140.94;5123846;28;20079;-64
2021/12/15 10:38:27;;;;;;;27.77;14.23;;;;;;;2.80;100.00;100143.16;5131506;28;20047;-63
2021/12/15 10:41:00;;;;;;;36.58;14.50;;;;;;;2.88;100.00;100132.75;5122125;28;20079;-64
2021/12/15 10:43:31;;;;;;;30.00;15.35;;;;;;;2.94;100.00;100131.59;5111339;28;20058;-59
2021/12/15 10:46:01;;;;;;;28.95;13.98;;;;;;;2.95;100.00;100138.63;5111539;28;20048;-63
2021/12/15 10:48:36;;;;;;;26.05;14.25;;;;;;;2.99;100.00;100154.00;5111628;28;20430;-70
2021/12/15 10:51:18;;;;;;;29.17;14.48;;;;;;;2.97;100.00;100158.91;5120169;28;20047;-74
2021/12/15 10:53:46;;;;;;;32.78;15.38;;;;;;;2.94;100.00;100164.13;5120431;28;20054;-68
2021/12/15 10:56:16;;;;;;;31.13;16.40;;;;;;;2.93;100.00;100171.44;5111624;28;20101;-64
2021/12/15 10:58:45;;;;;;;32.83;15.25;;;;;;;2.90;100.00;100176.59;5110924;28;20138;-64
2021/12/15 11:01:45;;;;;;;26.00;14.38;;;;;;;2.83;100.00;100185.06;5125713;28;20054;-64
2021/12/15 11:04:40;;;;;;;30.17;14.98;;;;;;;2.83;100.00;100174.25;5126816;28;20048;-63
2021/12/15 11:07:11;;;;;;;24.90;12.43;;;;;;;2.82;100.00;100189.69;5099860;28;20642;-62
2021/12/15 11:09:39;;;;;;;27.75;13.55;;;;;;;2.90;100.00;100190.13;5119372;28;20052;-63
2021/12/15 11:12:11;;;;;;;27.70;14.00;;;;;;;2.94;100.00;100181.16;5120523;28;20196;-63
2021/12/15 11:14:42;;;;;;;26.60;14.40;;;;;;;2.97;100.00;100193.34;5132220;28;20057;-63
2021/12/15 11:17:14;;;;;;;26.70;13.80;;;;;;;2.96;100.00;100183.56;5118156;28;20505;-63
2021/12/15 11:19:44;;;;;;;27.30;14.38;;;;;;;2.99;100.00;100189.22;5110846;28;20047;-63
2021/12/15 11:22:38;;;;;;;27.15;13.77;;;;;;;3.05;100.00;100184.56;5125275;28;20488;-63
2021/12/15 11:25:07;;;;;;;25.85;13.95;;;;;;;3.08;100.00;100173.13;5116609;28;20116;-63
2021/12/15 11:27:33;;;;;;;27.58;13.55;;;;;;;3.16;100.00;100180.59;5120347;28;20046;-64
2021/12/15 11:30:00;;;;;;;29.20;15.13;;;;;;;3.04;100.00;100196.50;5117922;28;20048;-64
2021/12/15 11:32:43;;;;;;;25.88;14.27;;;;;;;2.95;100.00;100204.44;5110664;28;20069;-64
2021/12/15 11:35:15;;;;;;;26.67;14.18;;;;;;;3.08;100.00;100185.88;5123252;28;20100;-65
2021/12/15 11:37:54;;;;;;;24.60;14.00;;;;;;;3.16;100.00;100180.59;5115767;28;20054;-64
2021/12/15 11:40:37;;;;;;;27.55;13.93;;;;;;;3.10;100.00;100180.97;5111326;28;20051;-64
2021/12/15 11:43:05;;;;;;;25.20;13.88;;;;;;;3.19;100.00;100174.59;5130338;28;20051;-65
2021/12/15 11:45:33;;;;;;;27.27;13.80;;;;;;;3.29;100.00;100170.97;5131044;28;20502;-65
2021/12/15 11:48:14;;;;;;;30.90;15.38;;;;;;;3.33;100.00;100187.44;5126849;28;20119;-65
2021/12/15 11:50:42;;;;;;;30.60;15.32;;;;;;;3.35;100.00;100190.69;5111216;28;20692;-66
2021/12/15 11:53:21;;;;;;;29.05;14.82;;;;;;;3.34;100.00;100189.88;5110469;28;20519;-66
2021/12/15 11:55:48;;;;;;;29.25;15.48;;;;;;;3.36;100.00;100189.56;5110390;28;20100;-66
2021/12/15 11:58:14;;;;;;;31.13;15.05;;;;;;;3.42;100.00;100204.69;5110679;28;20051;-63
2021/12/15 12:00:41;;;;;;;32.85;13.85;;;;;;;3.35;100.00;100209.66;5110459;28;20055;-64
2021/12/15 12:03:13;;;;;;;26.48;13.63;;;;;;;3.29;100.00;100217.84;5110189;28;20089;-64
2021/12/15 12:05:40;;;;;;;22.02;12.77;;;;;;;3.36;100.00;100219.38;5119183;28;20558;-66
2021/12/15 12:08:11;;;;;;;26.75;14.82;;;;;;;3.42;100.00;100212.81;5131132;28;20073;-64
2021/12/15 12:10:44;;;;;;;27.45;14.45;;;;;;;3.46;100.00;100219.25;5130364;27;20182;-64
2021/12/15 12:13:15;;;;;;;25.17;12.75;;;;;;;3.41;100.00;100222.06;5130493;28;20595;-63